• Join FlightAware (Why Join?)
  • Login
  • US Flag 
03:43AM EDT


 

Airport Tracker/Info


-or-


 

Live Flight TrackerFlight Track Log ✈ N93974 ✈ 27-Oct-2013 ✈ KFNL - C29

Flight Track Log - Related Links

Times and Time Zones

All times are in EDT time to prevent confusion due to time zone crossing. See the N93974 flight status page for this flight to view local times or setup timezone preferences in your user account.

Time Position Orientation Groundspeed Altitude Reporting Facility
EDT Latitude Longitude Course Direction KTS MPH feet Rate Location/Type
02:43PM 40.7503 -103.6003 72° East 168 193 9,400  Level Denver Center
02:44PM 40.7631 -103.5372 75° East 173 199 9,400  Level Denver Center
02:45PM 40.7811 -103.4650 72° East 174 200 9,400 120 Level Denver Center
02:46PM 40.7950 -103.4081 72° East 166 191 9,700 240 Climbing Denver Center
02:47PM 40.5426 -104.6432 72° East  Level Estimated
02:47PM 40.8064 -103.3550 74° East 156 180 9,900  Level Denver Center
02:48PM 40.5576 -104.5818 72° East  Level Estimated
02:48PM 40.8164 -103.2994 77° East 155 178 10,200  Level Denver Center
02:49PM 40.8347 -103.2486 65° Northeast 154 177 10,400 120 Climbing Denver Center
02:50PM 40.8544 -103.2000 62° Northeast 150 173 10,500 60 Climbing Denver Center
02:51PM 40.8775 -103.1400 63° Northeast 152 175 10,600 120 Climbing Denver Center
02:52PM 40.8808 -103.0806 86° East 159 183 10,800 180 Climbing Denver Center
02:53PM 40.8892 -103.0250 79° East 156 180 11,000  Climbing Denver Center
02:54PM 40.9031 -102.9631 73° East 164 189 10,900 -60 Descending Denver Center
02:55PM 40.9189 -102.9069 70° East 171 197 10,900  Level Denver Center
02:56PM 40.9328 -102.8364 75° East 178 205 10,900  Level Denver Center
02:57PM 40.9453 -102.7797 74° East 171 197 11,000  Climbing Denver Center
02:58PM 40.9611 -102.7128 73° East 172 198 10,900 -60 Descending Denver Center
02:59PM 40.9706 -102.6542 78° East 171 197 10,900  Level Denver Center
03:00PM 40.9892 -102.5900 69° East 169 194 10,900  Level Denver Center
03:01PM 41.0039 -102.5342 71° East 168 193 10,900  Level Denver Center
03:02PM 41.0153 -102.4694 77° East 164 189 10,900  Level Denver Center
03:03PM 41.0283 -102.4150 72° East 163 188 10,900  Level Denver Center
03:05PM 41.0447 -102.3475 72° East 168 193 10,900  Level Denver Center
03:06PM 41.0583 -102.2911 72° East 169 194 10,900  Level Denver Center
03:07PM 41.0708 -102.2333 74° East 169 194 10,900 -60 Level Denver Center
03:08PM 41.0856 -102.1667 74° East 169 194 10,800  Descending Denver Center
03:09PM 41.0983 -102.1089 74° East 170 196 10,900  Climbing Denver Center
03:10PM 41.1136 -102.0408 73° East 171 197 10,800 -60 Descending Denver Center
03:11PM 41.1264 -101.9833 74° East 172 198 10,800  Level Denver Center
03:12PM 41.1403 -101.9136 75° East 173 199 10,800  Level Denver Center
03:13PM 41.1550 -101.8575 71° East 170 196 10,900  Climbing Denver Center
03:14PM 41.1692 -101.7894 75° East 171 197 10,800 -60 Descending Denver Center
03:15PM 41.1794 -101.7308 77° East 171 197 10,800  Level Denver Center
03:16PM 41.1933 -101.6633 75° East 170 196 10,800  Level Denver Center
03:17PM 41.2075 -101.6061 72° East 170 196 10,800  Level Denver Center
03:18PM 41.2217 -101.5369 75° East 172 198 10,800  Level Denver Center
03:19PM 41.2353 -101.4781 73° East 173 199 10,800  Level Denver Center
03:20PM 41.2475 -101.4194 74° East 173 199 10,800  Level Denver Center
03:21PM 41.2617 -101.3522 74° East 171 197 10,800  Level Denver Center
03:22PM 41.2739 -101.2958 74° East 169 194 10,800  Level Denver Center
03:23PM 41.2875 -101.2286 75° East 168 193 10,800  Level Denver Center
03:24PM 41.3000 -101.1711 74° East 168 193 10,800  Level Denver Center
03:25PM 41.3139 -101.1056 74° East 166 191 10,800  Level Denver Center
03:26PM 41.3256 -101.0489 75° East 166 191 10,800  Level Denver Center
03:27PM 41.3408 -100.9819 73° East 167 192 10,800  Level Denver Center
03:28PM 41.3531 -100.9247 74° East 168 193 10,800  Level Denver Center
03:29PM 41.3672 -100.8567 74° East 170 196 10,800  Level Denver Center
03:30PM 41.3817 -100.8006 71° East 169 194 10,800  Level Denver Center
03:31PM 41.3922 -100.7311 79° East 170 196 10,800  Level Denver Center
03:32PM 41.4028 -100.6731 76° East 169 194 10,800  Level Denver Center
03:33PM 41.4147 -100.6139 75° East 171 197 10,800  Level Denver Center
03:35PM 41.4281 -100.5450 76° East 172 198 10,800  Level Denver Center
03:36PM 41.4422 -100.4867 72° East 172 198 10,800  Level Denver Center
03:37PM 41.4558 -100.4189 75° East 171 197 10,800  Level Denver Center
03:38PM 41.4678 -100.3597 75° East 171 197 10,800  Level Denver Center
03:39PM 41.4836 -100.2903 73° East 174 200 10,800  Level Denver Center
03:40PM 41.4958 -100.2328 74° East 171 197 10,800  Level Denver Center
03:41PM 41.5081 -100.1619 77° East 173 199 10,800  Level Denver Center
03:42PM 41.5211 -100.1036 73° East 172 198 10,800  Level Denver Center
03:43PM 41.5353 -100.0356 74° East 170 196 10,800  Level Denver Center
03:44PM 41.5472 -99.9753 75° East 174 200 10,800  Level Denver Center
03:45PM 41.5600 -99.9050 76° East 174 200 10,800  Level Denver Center
03:46PM 41.5717 -99.8447 75° East 174 200 10,800  Level Denver Center
03:47PM 41.5850 -99.7858 73° East 175 201 10,800  Level Denver Center
03:48PM 41.5975 -99.7197 76° East 174 200 10,800  Level Denver Center
03:49PM 41.6111 -99.6575 74° East 174 200 10,800  Level Denver Center
03:50PM 41.6214 -99.5947 78° East 174 200 10,800  Level Denver Center
03:51PM 41.6314 -99.5458 75° East 173 199 10,800  Level Minneapolis Center
03:52PM 41.6456 -99.4858 72° East 170 196 10,800  Level Minneapolis Center
03:53PM 41.6556 -99.4239 78° East 170 196 10,800  Level Minneapolis Center
03:54PM 41.6672 -99.3642 75° East 169 194 10,800  Level Minneapolis Center
03:55PM 41.6781 -99.3033 77° East 168 193 10,800  Level Minneapolis Center
03:56PM 41.6886 -99.2428 77° East 167 192 10,800 60 Level Minneapolis Center
03:57PM 41.7014 -99.1844 74° East 166 191 11,000 60 Climbing Minneapolis Center
03:58PM 41.7131 -99.1278 75° East 162 186 11,000  Level Minneapolis Center
03:59PM 41.7256 -99.0561 77° East 163 188 11,000  Level Minneapolis Center
04:00PM 41.7378 -98.9964 75° East 164 189 11,000  Level Minneapolis Center
04:01PM 41.7503 -98.9353 75° East 167 192 11,000  Level Minneapolis Center
04:02PM 41.7603 -98.8744 78° East 167 192 11,000  Level Minneapolis Center
04:03PM 41.7719 -98.8142 75° East 167 192 11,000  Level Minneapolis Center
04:04PM 41.7817 -98.7547 78° East 165 190 11,000  Level Minneapolis Center
04:05PM 41.7958 -98.6947 72° East 166 191 11,000  Level Minneapolis Center
04:06PM 41.8089 -98.6250 76° East 162 186 11,000  Level Minneapolis Center
04:07PM 41.8194 -98.5647 77° East 164 189 11,000  Level Minneapolis Center
04:08PM 41.8303 -98.5039 77° East 167 192 11,000  Level Minneapolis Center
04:09PM 41.8417 -98.4431 76° East 168 193 11,000  Level Minneapolis Center
04:10PM 41.8531 -98.3817 76° East 169 194 11,000  Level Minneapolis Center
04:11PM 41.8644 -98.3197 76° East 170 196 11,000  Level Minneapolis Center
04:12PM 41.8753 -98.2575 77° East 171 197 11,000  Level Minneapolis Center
04:13PM 41.8889 -98.1847 76° East 168 193 11,000  Level Minneapolis Center
04:14PM 41.8986 -98.1247 78° East 171 197 11,000  Level Minneapolis Center
04:15PM 41.9122 -98.0644 73° East 170 196 11,000  Level Minneapolis Center
04:16PM 41.9242 -98.0047 75° East 168 193 11,000  Level Minneapolis Center
04:18PM 41.9336 -97.9419 79° East 170 196 11,000  Level Minneapolis Center
04:19PM 41.9450 -97.8689 78° East 168 193 11,000  Level Minneapolis Center
04:20PM 41.9583 -97.8092 73° East 167 192 11,000  Level Minneapolis Center
04:21PM 41.9667 -97.7472 80° East 168 193 11,000  Level Minneapolis Center
04:22PM 41.9764 -97.6861 78° East 167 192 11,000  Level Minneapolis Center
04:23PM 41.9897 -97.6247 74° East 169 194 11,000  Level Minneapolis Center
04:24PM 41.9989 -97.5639 79° East 168 193 11,000  Level Minneapolis Center
04:25PM 42.0114 -97.4894 77° East 169 194 11,000  Level Minneapolis Center
04:26PM 42.0228 -97.4286 76° East 169 194 11,000  Level Minneapolis Center
04:27PM 42.0347 -97.3653 76° East 173 199 11,000  Level Minneapolis Center
04:28PM 42.0433 -97.3036 79° East 170 196 11,000  Level Minneapolis Center
04:29PM 42.0553 -97.2408 76° East 172 198 11,000  Level Minneapolis Center
04:30PM 42.0664 -97.1786 76° East 171 197 11,000  Level Minneapolis Center
04:31PM 42.0772 -97.1167 77° East 170 196 11,000  Level Minneapolis Center
04:32PM 42.0897 -97.0406 77° East 171 197 11,000  Level Minneapolis Center
04:33PM 42.1006 -96.9783 77° East 171 197 11,000  Level Minneapolis Center
04:34PM 42.1106 -96.9167 78° East 169 194 11,000  Level Minneapolis Center
04:35PM 42.1217 -96.8550 76° East 170 196 11,000  Level Minneapolis Center
04:36PM 42.1328 -96.7914 77° East 172 198 11,000  Level Minneapolis Center
04:37PM 42.1433 -96.7289 77° East 172 198 11,000  Level Minneapolis Center
04:38PM 42.1556 -96.6533 78° East 172 198 11,000  Level Minneapolis Center
04:39PM 42.1669 -96.5897 76° East 173 199 11,000  Level Minneapolis Center
04:40PM 42.1775 -96.5264 77° East 173 199 11,000  Level Minneapolis Center
04:41PM 42.1892 -96.4633 76° East 174 200 11,000  Level Minneapolis Center
04:42PM 42.1997 -96.4003 77° East 172 198 11,000  Level Minneapolis Center
04:43PM 42.2106 -96.3356 77° East 174 200 11,000  Level Minneapolis Center
04:44PM 42.2206 -96.2722 78° East 174 200 11,000  Level Minneapolis Center
04:45PM 42.2333 -96.1950 77° East 176 203 11,000  Level Minneapolis Center
04:46PM 42.2428 -96.1300 79° East 176 203 11,000  Level Minneapolis Center
04:48PM 42.2536 -96.0672 77° East 173 199 11,000  Level Minneapolis Center
04:49PM 42.2647 -95.9953 78° East 175 201 11,000  Level Minneapolis Center
04:50PM 42.2742 -95.9403 77° East 173 199 11,000  Level Minneapolis Center
04:51PM 42.2842 -95.8781 78° East 172 198 11,000  Level Minneapolis Center
04:52PM 42.2950 -95.8022 79° East 171 197 11,000  Level Minneapolis Center
04:53PM 42.3053 -95.7381 78° East 173 199 11,000 -60 Level Minneapolis Center
04:54PM 42.3156 -95.6719 78° East 176 203 10,900  Descending Minneapolis Center
04:55PM 42.3264 -95.6094 77° East 175 201 11,000  Climbing Minneapolis Center
04:56PM 42.3356 -95.5433 79° East 177 204 11,000  Level Minneapolis Center
04:57PM 42.3469 -95.4792 76° East 175 201 11,000  Level Minneapolis Center
04:58PM 42.3586 -95.4028 78° East 174 200 11,000  Level Minneapolis Center
04:59PM 42.3700 -95.3383 77° East 175 201 11,000  Level Minneapolis Center
05:00PM 42.3769 -95.2728 82° East 176 203 11,000  Level Minneapolis Center
05:01PM 42.3881 -95.2069 77° East 178 205 11,000  Level Minneapolis Center
05:02PM 42.4000 -95.1433 76° East 176 203 11,000  Level Minneapolis Center
05:03PM 42.4122 -95.0803 75° East 175 201 11,000  Level Minneapolis Center
05:04PM 42.4089 -95.0100 94° East 181 208 11,000  Level Minneapolis Center
05:05PM 42.4347 -94.9408 63° Northeast 173 199 11,100  Climbing Minneapolis Center
05:06PM 42.4381 -94.8717 86° East 177 204 11,100  Level Minneapolis Center
05:07PM 42.4483 -94.8058 78° East 181 208 11,100  Level Minneapolis Center
05:08PM 42.4608 -94.7417 75° East 176 203 11,100  Level Minneapolis Center
05:09PM 42.4672 -94.6719 83° East 182 209 11,100 -60 Level Minneapolis Center
05:10PM 42.4792 -94.6064 76° East 182 209 11,000 -60 Descending Minneapolis Center
05:11PM 42.4914 -94.5308 78° East 176 203 11,000  Level Minneapolis Center
05:12PM 42.5031 -94.4633 77° East 179 206 11,000  Level Minneapolis Center
05:13PM 42.5108 -94.3919 82° East 183 211 11,000  Level Minneapolis Center
05:14PM 42.5208 -94.3253 78° East 183 211 11,000  Level Minneapolis Center
05:15PM 42.5317 -94.2597 77° East 181 208 11,000  Level Minneapolis Center
05:16PM 42.5411 -94.1925 79° East 182 209 11,000  Level Minneapolis Center
05:18PM 42.5517 -94.1256 78° East 183 211 11,000  Level Minneapolis Center
05:19PM 42.5617 -94.0436 81° East 184 212 11,000  Level Minneapolis Center
05:20PM 42.5731 -93.9753 77° East 184 212 11,000  Level Minneapolis Center
05:21PM 42.5817 -93.9100 80° East 182 209 11,000  Level Minneapolis Center
05:22PM 42.5917 -93.8433 78° East 183 211 11,000  Level Minneapolis Center
05:23PM 42.6003 -93.7761 80° East 183 211 11,000  Level Minneapolis Center
05:24PM 42.6094 -93.6950 81° East 183 211 11,000  Level Minneapolis Center
05:25PM 42.6164 -93.6256 82° East 184 212 11,000  Level Minneapolis Center
05:26PM 42.6300 -93.5589 74° East 184 212 11,000  Level Minneapolis Center
05:27PM 42.6397 -93.4917 79° East 184 212 11,000  Level Minneapolis Center
05:27PM 42.6442 -93.4647 77° East 184 212 11,000  Level Minneapolis Center
05:28PM 42.6533 -93.3983 79° East 182 209 11,000  Level Minneapolis Center
05:29PM 42.6636 -93.3175 80° East 183 211 11,000  Level Minneapolis Center
05:30PM 42.6728 -93.2503 79° East 183 211 11,000  Level Minneapolis Center
05:31PM 42.6819 -93.1833 79° East 182 209 11,000 -60 Level Minneapolis Center
05:32PM 42.6903 -93.1161 80° East 182 209 10,900 -60 Descending Minneapolis Center
05:33PM 42.7011 -93.0486 78° East 184 212 10,900  Level Minneapolis Center
05:34PM 42.7119 -92.9656 80° East 186 214 10,900  Level Minneapolis Center
05:35PM 42.7208 -92.8981 80° East 184 212 10,900  Level Minneapolis Center
05:37PM 42.7306 -92.8292 79° East 186 214 11,000  Climbing Minneapolis Center
05:38PM 42.7375 -92.7608 82° East 184 212 11,000  Level Minneapolis Center
05:39PM 42.7467 -92.6928 80° East 184 212 11,000  Level Minneapolis Center
05:40PM 42.7589 -92.6106 79° East 185 213 11,000  Level Minneapolis Center
05:41PM 42.7672 -92.5256 82° East 187 215 11,000  Level Chicago Center
05:42PM 42.7758 -92.4567 80° East 188 216 11,100  Climbing Chicago Center
05:43PM 42.7858 -92.3867 79° East 188 216 11,100 -60 Level Chicago Center
05:44PM 42.7925 -92.3011 84° East 190 219 11,000  Descending Chicago Center
05:45PM 42.8028 -92.2322 78° East 188 216 11,100  Climbing Chicago Center
05:46PM 42.8128 -92.1633 79° East 188 216 11,000 -60 Descending Chicago Center
05:47PM 42.8217 -92.0939 80° East 188 216 11,000  Level Chicago Center
05:48PM 42.8311 -92.0244 79° East 187 215 11,000  Level Chicago Center
05:49PM 42.8408 -91.9419 81° East 187 215 11,100  Climbing Chicago Center
05:50PM 42.8503 -91.8722 80° East 187 215 11,100 -180 Level Chicago Center
05:51PM 42.8589 -91.7997 81° East 190 219 10,800 -120 Descending Chicago Center
05:52PM 42.8664 -91.7264 82° East 193 222 10,900  Climbing Chicago Center
05:53PM 42.8758 -91.6550 80° East 192 221 10,900  Level Chicago Center
05:54PM 42.8856 -91.5833 79° East 192 221 10,900  Level Chicago Center
05:55PM 42.8922 -91.5111 83° East 192 221 10,900  Level Chicago Center
05:56PM 42.9033 -91.4256 80° East 191 220 11,000  Climbing Chicago Center
05:57PM 42.9125 -91.3586 79° East 185 213 11,000  Level Chicago Center
05:58PM 42.9197 -91.2889 82° East 185 213 11,000  Level Chicago Center
06:00PM 42.9275 -91.2203 81° East 185 213 11,000  Level Chicago Center
06:01PM 42.9381 -91.1372 80° East 186 214 11,000  Level Chicago Center
06:02PM 42.9469 -91.0683 80° East 186 214 11,000 -240 Level Chicago Center
06:03PM 42.9533 -90.9986 83° East 186 214 10,600 -540 Descending Chicago Center
06:04PM 42.9606 -90.9206 83° East 202 232 10,000 -600 Descending Chicago Center
06:05PM 42.9669 -90.8428 84° East 207 238 9,400 -660 Descending Chicago Center
06:06PM 42.9781 -90.7481 81° East 211 243 8,700 -660 Descending Chicago Center
06:07PM 42.9889 -90.6714 79° East 209 241 8,100 -600 Descending Chicago Center
06:08PM 42.9983 -90.5947 80° East 208 239 7,500 -480 Descending Chicago Center
06:09PM 43.0078 -90.5208 80° East 202 232 7,200 -420 Descending Chicago Center
06:10PM 43.0181 -90.4494 79° East 196 226 6,700 -720 Descending Chicago Center
06:11PM 43.0278 -90.3586 82° East 201 231 5,800 -780 Descending Chicago Center
06:12PM 43.0331 -90.2814 85° East 204 235 5,200 -480 Descending Chicago Center
06:13PM 43.0417 -90.2092 81° East 198 228 4,900 -180 Descending Chicago Center
06:14PM 43.0519 -90.1408 78° East 188 216 4,900  Level Chicago Center
06:15PM 43.0592 -90.0736 82° East 182 209 5,000  Climbing Chicago Center
06:16PM 43.0633 -89.9925 86° East 180 207 4,900 -120 Descending Chicago Center
06:17PM 43.0686 -89.9247 84° East 180 207 4,800 -300 Descending Chicago Center
06:18PM 43.0719 -89.8589 86° East 183 211 4,400 -480 Descending Chicago Center
06:19PM 43.0800 -89.7797 82° East 178 205 3,900 -480 Descending Chicago Center
06:20PM 43.0886 -89.7150 80° East 175 201 3,500 -240 Descending Chicago Center
06:21PM 43.0922 -89.6589 85° East 171 197 3,500  Level Chicago Center